createdAt,value
2022-09-21T00:00:07.658Z,100.00
2022-09-21T00:02:57.329Z,100.00
2022-09-21T00:05:46.007Z,100.00
2022-09-21T00:08:36.228Z,100.00
2022-09-21T00:11:27.030Z,100.00
2022-09-21T00:14:15.600Z,100.00
2022-09-21T00:17:04.208Z,100.00
2022-09-21T00:19:53.096Z,100.00
2022-09-21T00:22:41.931Z,100.00
2022-09-21T00:25:31.718Z,100.00
2022-09-21T00:28:20.164Z,100.00
2022-09-21T00:31:11.003Z,100.00
2022-09-21T00:34:00.922Z,100.00
2022-09-21T00:36:49.435Z,100.00
2022-09-21T00:39:37.869Z,100.00
2022-09-21T00:42:30.207Z,100.00
2022-09-21T00:45:21.929Z,100.00
2022-09-21T00:48:10.779Z,100.00
2022-09-21T00:51:04.145Z,100.00
2022-09-21T00:53:55.800Z,100.00
2022-09-21T00:56:45.247Z,100.00
2022-09-21T00:59:36.857Z,100.00
2022-09-21T01:02:26.672Z,100.00
2022-09-21T01:05:15.203Z,100.00
2022-09-21T01:08:05.973Z,100.00
2022-09-21T01:11:10.098Z,100.00
2022-09-21T01:14:13.971Z,100.00
2022-09-21T01:17:10.040Z,100.00
2022-09-21T01:20:16.563Z,100.00
2022-09-21T01:23:39.939Z,100.00
2022-09-21T01:26:39.525Z,100.00
2022-09-21T01:29:32.982Z,100.00
2022-09-21T01:32:25.120Z,100.00
2022-09-21T01:35:16.032Z,100.00
2022-09-21T01:38:07.550Z,100.00
2022-09-21T01:40:59.720Z,100.00
2022-09-21T01:43:50.828Z,100.00
2022-09-21T01:46:40.680Z,100.00
2022-09-21T01:49:34.357Z,100.00
2022-09-21T01:52:25.710Z,100.00
2022-09-21T01:55:16.354Z,100.00
2022-09-21T01:58:16.551Z,100.00
2022-09-21T02:01:06.487Z,100.00
2022-09-21T02:03:59.813Z,100.00
2022-09-21T02:06:48.901Z,100.00
2022-09-21T02:09:38.249Z,100.00
2022-09-21T02:12:26.675Z,100.00
2022-09-21T02:15:15.228Z,100.00
2022-09-21T02:18:06.510Z,100.00
2022-09-21T02:20:58.299Z,100.00
2022-09-21T02:23:52.655Z,100.00
2022-09-21T02:26:45.192Z,100.00
2022-09-21T02:29:43.381Z,100.00
2022-09-21T02:32:36.073Z,100.00
2022-09-21T02:35:30.643Z,100.00
2022-09-21T02:38:26.450Z,100.00
2022-09-21T02:41:19.831Z,100.00
2022-09-21T02:44:14.069Z,100.00
2022-09-21T02:47:05.594Z,100.00
2022-09-21T02:49:55.757Z,100.00
2022-09-21T02:52:45.315Z,100.00
2022-09-21T02:55:35.263Z,100.00
2022-09-21T02:58:25.591Z,100.00
2022-09-21T03:01:16.079Z,100.00
2022-09-21T03:04:04.512Z,100.00
2022-09-21T03:06:53.048Z,100.00
2022-09-21T03:09:41.497Z,100.00
2022-09-21T03:12:32.653Z,100.00
2022-09-21T03:15:21.270Z,100.00
2022-09-21T03:18:11.279Z,100.00
2022-09-21T03:21:00.174Z,100.00
2022-09-21T03:23:48.729Z,100.00
2022-09-21T03:26:37.144Z,100.00
2022-09-21T03:29:26.962Z,100.00
2022-09-21T03:32:15.420Z,100.00
2022-09-21T03:35:04.836Z,100.00
2022-09-21T03:37:53.394Z,100.00
2022-09-21T03:40:41.944Z,100.00
2022-09-21T03:43:30.397Z,100.00
2022-09-21T03:46:20.319Z,100.00
2022-09-21T03:49:08.876Z,100.00
2022-09-21T03:51:58.250Z,100.00
2022-09-21T03:54:46.735Z,100.00
2022-09-21T03:57:35.287Z,100.00
2022-09-21T04:00:23.729Z,100.00
2022-09-21T04:03:13.529Z,100.00
2022-09-21T04:06:01.957Z,100.00
2022-09-21T04:08:50.387Z,100.00
2022-09-21T04:11:38.907Z,100.00
2022-09-21T04:14:27.720Z,100.00
2022-09-21T04:17:16.186Z,100.00
2022-09-21T04:20:07.542Z,100.00
2022-09-21T04:22:56.028Z,100.00
2022-09-21T04:25:45.024Z,100.00
2022-09-21T04:28:33.643Z,100.00
2022-09-21T04:31:22.657Z,100.00
2022-09-21T04:34:13.835Z,100.00
2022-09-21T04:37:03.676Z,100.00
2022-09-21T04:39:52.075Z,100.00
2022-09-21T04:42:40.492Z,100.00
2022-09-21T04:45:28.934Z,100.00
2022-09-21T04:48:17.939Z,100.00
2022-09-21T04:51:07.756Z,100.00
2022-09-21T04:53:57.627Z,100.00
2022-09-21T04:56:46.069Z,100.00
2022-09-21T04:59:34.471Z,100.00
2022-09-21T05:02:22.940Z,100.00
2022-09-21T05:05:11.359Z,100.00
2022-09-21T05:07:59.927Z,100.00
2022-09-21T05:10:48.826Z,100.00
2022-09-21T05:13:37.486Z,100.00
2022-09-21T05:16:26.024Z,100.00
2022-09-21T05:19:14.445Z,100.00
2022-09-21T05:22:03.058Z,100.00
2022-09-21T05:24:51.572Z,100.00
2022-09-21T05:27:41.479Z,100.00
2022-09-21T05:30:30.533Z,100.00
2022-09-21T05:33:20.487Z,100.00
2022-09-21T05:36:20.042Z,100.00
2022-09-21T05:39:09.129Z,100.00
2022-09-21T05:41:58.176Z,100.00
2022-09-21T05:44:49.471Z,100.00
2022-09-21T05:47:40.977Z,100.00
2022-09-21T05:50:35.587Z,100.00
2022-09-21T05:53:43.106Z,100.00
2022-09-21T05:56:40.542Z,100.00
2022-09-21T05:59:40.395Z,100.00
2022-09-21T06:02:50.095Z,100.00
2022-09-21T06:05:38.596Z,100.00
2022-09-21T06:08:27.537Z,100.00
2022-09-21T06:11:16.158Z,100.00
2022-09-21T06:14:04.596Z,100.00
2022-09-21T06:16:53.569Z,100.00
2022-09-21T06:19:43.372Z,100.00
2022-09-21T06:22:31.790Z,99.00
2022-09-21T06:25:20.958Z,98.27
2022-09-21T06:28:11.021Z,98.53
2022-09-21T06:30:59.854Z,97.61
2022-09-21T06:33:48.381Z,99.19
2022-09-21T06:36:38.159Z,98.64
2022-09-21T06:39:26.619Z,97.94
2022-09-21T06:42:15.047Z,97.36
2022-09-21T06:45:03.511Z,96.59
2022-09-21T06:47:52.128Z,94.52
2022-09-21T06:50:40.643Z,94.54
2022-09-21T06:53:31.250Z,93.65
2022-09-21T06:56:19.687Z,92.49
2022-09-21T06:59:08.318Z,90.62
2022-09-21T07:01:58.425Z,91.68
2022-09-21T07:04:47.162Z,88.84
2022-09-21T07:07:36.432Z,87.66
2022-09-21T07:10:26.711Z,87.60
2022-09-21T07:13:16.218Z,86.90
2022-09-21T07:16:05.808Z,86.47
2022-09-21T07:18:54.634Z,85.77
2022-09-21T07:21:43.062Z,85.00
2022-09-21T07:24:31.544Z,86.88
2022-09-21T07:27:22.490Z,84.68
2022-09-21T07:30:12.114Z,84.49
2022-09-21T07:33:00.590Z,84.41
2022-09-21T07:35:53.071Z,83.39
2022-09-21T07:38:42.738Z,83.52
2022-09-21T07:41:31.191Z,84.28
2022-09-21T07:44:22.499Z,83.65
2022-09-21T07:47:11.653Z,83.25
2022-09-21T07:50:00.134Z,83.32
2022-09-21T07:52:48.715Z,82.12
2022-09-21T07:55:37.147Z,80.75
2022-09-21T07:58:43.004Z,79.50
2022-09-21T08:01:33.864Z,80.50
2022-09-21T08:04:22.345Z,79.19
2022-09-21T08:07:10.788Z,78.66
2022-09-21T08:09:59.251Z,78.49
2022-09-21T08:12:47.774Z,76.09
2022-09-21T08:15:51.119Z,76.73
2022-09-21T08:18:42.247Z,75.83
2022-09-21T08:21:30.762Z,73.34
2022-09-21T08:24:19.733Z,72.73
2022-09-21T08:27:08.476Z,70.24
2022-09-21T08:29:57.708Z,68.50
2022-09-21T08:32:51.451Z,66.41
2022-09-21T08:35:41.740Z,67.41
2022-09-21T08:38:33.728Z,65.91
2022-09-21T08:41:25.195Z,65.71
2022-09-21T08:44:16.890Z,66.26
2022-09-21T08:47:09.518Z,66.38
2022-09-21T08:50:00.103Z,65.69
2022-09-21T08:52:50.107Z,65.38
2022-09-21T08:55:38.615Z,64.96
2022-09-21T08:58:29.068Z,64.56
2022-09-21T09:01:32.053Z,64.55
2022-09-21T09:04:30.794Z,65.42
2022-09-21T09:07:30.376Z,65.09
2022-09-21T09:10:34.788Z,65.06
2022-09-21T09:13:41.970Z,66.13
2022-09-21T09:16:36.616Z,65.91
2022-09-21T09:19:30.098Z,64.61
2022-09-21T09:22:21.238Z,63.31
2022-09-21T09:25:18.089Z,64.11
2022-09-21T09:28:30.890Z,64.08
2022-09-21T09:31:21.179Z,63.95
2022-09-21T09:34:13.446Z,62.42
2022-09-21T09:37:11.609Z,62.99
2022-09-21T09:40:02.419Z,62.27
2022-09-21T09:43:00.163Z,61.21
2022-09-21T09:46:00.268Z,60.29
2022-09-21T09:49:02.382Z,60.55
2022-09-21T09:51:51.471Z,59.56
2022-09-21T09:54:39.931Z,59.31
2022-09-21T09:57:30.729Z,59.36
2022-09-21T10:00:20.852Z,57.98
2022-09-21T10:03:18.291Z,57.40
2022-09-21T10:06:06.991Z,57.99
2022-09-21T10:08:55.621Z,57.57
2022-09-21T10:11:44.091Z,57.57
2022-09-21T10:14:35.660Z,57.92
2022-09-21T10:17:25.742Z,58.80
2022-09-21T10:20:18.320Z,60.01
2022-09-21T10:23:06.842Z,59.52
2022-09-21T10:26:03.860Z,61.41
2022-09-21T10:28:57.083Z,60.18
2022-09-21T10:31:56.033Z,59.54
2022-09-21T10:35:02.382Z,60.07
2022-09-21T10:38:10.404Z,59.53
2022-09-21T10:40:58.917Z,57.71
2022-09-21T10:43:47.826Z,57.07
2022-09-21T10:46:36.628Z,57.17
2022-09-21T10:49:27.296Z,55.81
2022-09-21T10:52:15.793Z,55.41
2022-09-21T10:55:06.767Z,55.59
2022-09-21T10:57:56.095Z,54.09
2022-09-21T11:00:48.064Z,53.93
2022-09-21T11:03:48.099Z,55.00
2022-09-21T11:06:41.511Z,56.32
2022-09-21T11:09:35.182Z,53.38
2022-09-21T11:12:35.349Z,52.73
2022-09-21T11:15:37.000Z,51.84
2022-09-21T11:18:35.913Z,54.55
2022-09-21T11:21:29.565Z,54.60
2022-09-21T11:24:24.308Z,53.33
2022-09-21T11:27:16.686Z,53.06
2022-09-21T11:30:11.944Z,51.95
2022-09-21T11:33:11.953Z,52.67
2022-09-21T11:36:05.019Z,51.59
2022-09-21T11:38:59.465Z,50.42
2022-09-21T11:42:11.026Z,50.08
2022-09-21T11:45:01.396Z,50.15
2022-09-21T11:48:01.612Z,48.21
2022-09-21T11:50:59.297Z,49.21
2022-09-21T11:54:05.577Z,49.77
2022-09-21T11:56:57.450Z,49.46
2022-09-21T12:00:04.159Z,49.15
2022-09-21T12:03:23.645Z,49.04
2022-09-21T12:06:18.968Z,49.48
2022-09-21T12:09:30.304Z,49.95
2022-09-21T12:12:22.547Z,50.80
2022-09-21T12:15:15.075Z,51.96
2022-09-21T12:18:10.123Z,49.32
2022-09-21T12:21:03.298Z,51.61
2022-09-21T12:23:54.949Z,49.39
2022-09-21T12:26:45.780Z,49.13
2022-09-21T12:29:39.376Z,49.67
2022-09-21T12:32:38.216Z,50.36
2022-09-21T12:35:34.789Z,49.08
2022-09-21T12:38:26.612Z,48.51
2022-09-21T12:41:18.273Z,50.70
2022-09-21T12:44:17.953Z,49.36
2022-09-21T12:47:10.548Z,49.42
2022-09-21T12:50:03.618Z,49.20
2022-09-21T12:52:53.860Z,50.11
2022-09-21T12:55:46.339Z,48.76
2022-09-21T12:58:55.248Z,49.33
2022-09-21T13:01:46.989Z,49.68
2022-09-21T13:04:46.835Z,49.09
2022-09-21T13:08:00.846Z,48.71
2022-09-21T13:10:59.318Z,49.16
2022-09-21T13:13:51.237Z,48.83
2022-09-21T13:16:40.500Z,48.82
2022-09-21T13:19:32.080Z,48.27
2022-09-21T13:22:24.149Z,48.40
2022-09-21T13:25:23.951Z,48.40
2022-09-21T13:28:23.987Z,48.48
2022-09-21T13:31:42.055Z,49.06
2022-09-21T13:34:33.487Z,49.14
2022-09-21T13:37:31.421Z,50.07
2022-09-21T13:40:42.439Z,49.90
2022-09-21T13:43:48.105Z,48.36
2022-09-21T13:46:51.668Z,49.52
2022-09-21T13:49:46.020Z,51.11
2022-09-21T13:52:44.713Z,50.84
2022-09-21T13:55:35.217Z,48.66
2022-09-21T13:58:28.314Z,47.25
2022-09-21T14:01:45.306Z,47.69
2022-09-21T14:04:31.196Z,49.12
2022-09-21T14:07:20.418Z,50.19
2022-09-21T14:10:10.033Z,48.48
2022-09-21T14:12:58.628Z,49.35
2022-09-21T14:15:48.590Z,48.17
2022-09-21T14:18:38.638Z,48.85
2022-09-21T14:21:27.268Z,48.83
2022-09-21T14:24:24.597Z,49.99
2022-09-21T14:27:17.606Z,50.29
2022-09-21T14:30:17.148Z,49.11
2022-09-21T14:33:22.203Z,49.28
2022-09-21T14:36:14.011Z,48.99
2022-09-21T14:39:05.625Z,49.13
2022-09-21T14:41:56.349Z,49.05
2022-09-21T14:44:45.031Z,47.78
2022-09-21T14:48:00.401Z,47.10
2022-09-21T14:50:53.172Z,46.72
2022-09-21T14:54:00.799Z,46.95
2022-09-21T14:57:01.296Z,47.57
2022-09-21T15:00:05.189Z,46.27
2022-09-21T15:03:06.385Z,47.92
2022-09-21T15:05:58.169Z,47.65
2022-09-21T15:09:09.969Z,47.50
2022-09-21T15:12:02.999Z,47.59
2022-09-21T15:14:57.702Z,45.48
2022-09-21T15:17:56.126Z,45.18
2022-09-21T15:21:01.654Z,46.33
2022-09-21T15:23:51.586Z,46.79
2022-09-21T15:26:40.794Z,47.05
2022-09-21T15:29:32.466Z,48.07
2022-09-21T15:32:28.992Z,48.34
2022-09-21T15:35:20.264Z,48.16
2022-09-21T15:38:29.060Z,47.81
2022-09-21T15:41:40.026Z,49.60
2022-09-21T15:44:34.076Z,50.77
2022-09-21T15:47:25.834Z,48.55
2022-09-21T15:50:15.536Z,46.90
2022-09-21T15:53:08.262Z,45.78
2022-09-21T15:56:01.431Z,46.56
2022-09-21T15:58:50.737Z,46.32
2022-09-21T16:01:42.734Z,47.38
2022-09-21T16:04:32.320Z,48.17
2022-09-21T16:07:26.988Z,48.73
2022-09-21T16:10:42.811Z,47.43
2022-09-21T16:13:50.871Z,48.61
2022-09-21T16:17:16.937Z,49.02
2022-09-21T16:20:19.747Z,49.46
2022-09-21T16:23:14.596Z,49.07
2022-09-21T16:26:03.105Z,48.36
2022-09-21T16:29:00.860Z,49.77
2022-09-21T16:31:50.767Z,50.62
2022-09-21T16:34:39.979Z,51.42
2022-09-21T16:37:29.799Z,52.23
2022-09-21T16:40:19.336Z,52.98
2022-09-21T16:43:09.657Z,53.65
2022-09-21T16:45:59.615Z,54.01
2022-09-21T16:48:48.957Z,54.62
2022-09-21T16:51:37.749Z,54.86
2022-09-21T16:54:27.325Z,55.34
2022-09-21T16:57:15.865Z,55.38
2022-09-21T17:00:07.649Z,55.62
2022-09-21T17:02:57.551Z,55.91
2022-09-21T17:05:46.173Z,56.39
2022-09-21T17:08:38.098Z,57.05
2022-09-21T17:11:27.062Z,57.54
2022-09-21T17:14:16.697Z,57.68
2022-09-21T17:17:12.986Z,58.35
2022-09-21T17:20:06.068Z,58.60
2022-09-21T17:22:54.578Z,59.29
2022-09-21T17:25:43.085Z,59.95
2022-09-21T17:28:32.222Z,60.18
2022-09-21T17:40:24.098Z,64.08
2022-09-21T17:43:22.199Z,65.29
2022-09-21T17:46:14.163Z,66.25
2022-09-21T17:49:03.397Z,67.36
2022-09-21T17:52:09.785Z,68.09
2022-09-21T17:55:02.315Z,68.95
2022-09-21T17:58:08.449Z,70.60
2022-09-21T18:01:01.010Z,72.15
2022-09-21T18:03:50.144Z,73.19
2022-09-21T18:06:39.184Z,74.47
2022-09-21T18:09:28.207Z,75.77
2022-09-21T18:12:48.610Z,78.17
2022-09-21T18:15:46.801Z,79.19
2022-09-21T18:18:43.058Z,80.01
2022-09-21T18:21:33.564Z,81.08
2022-09-21T18:24:27.434Z,81.47
2022-09-21T18:27:22.272Z,82.26
2022-09-21T18:30:12.962Z,82.90
2022-09-21T18:33:10.774Z,83.87
2022-09-21T18:36:08.907Z,84.08
2022-09-21T18:39:07.716Z,84.67
2022-09-21T18:42:07.286Z,85.59
2022-09-21T18:44:59.463Z,86.70
2022-09-21T18:48:04.957Z,87.47
2022-09-21T18:50:59.774Z,88.28
2022-09-21T18:53:52.838Z,88.44
2022-09-21T18:56:41.392Z,90.07
2022-09-21T18:59:32.021Z,90.53
2022-09-21T19:02:21.444Z,91.50
2022-09-21T19:05:12.924Z,91.44
2022-09-21T19:08:09.173Z,92.36
2022-09-21T19:11:02.906Z,92.29
2022-09-21T19:13:57.443Z,93.12
2022-09-21T19:16:57.777Z,93.41
2022-09-21T19:19:55.808Z,94.67
2022-09-21T19:22:50.422Z,95.89
2022-09-21T19:25:48.832Z,96.15
2022-09-21T19:28:52.042Z,96.20
2022-09-21T19:31:40.850Z,96.33
2022-09-21T19:34:30.115Z,96.27
2022-09-21T19:37:18.985Z,96.26
2022-09-21T19:40:11.868Z,96.83
2022-09-21T19:43:13.373Z,97.39
2022-09-21T19:46:18.355Z,97.87
2022-09-21T19:49:12.444Z,98.63
2022-09-21T19:52:04.725Z,99.52
2022-09-21T19:55:13.776Z,100.00
2022-09-21T19:58:20.500Z,100.00
2022-09-21T20:01:11.618Z,100.00
2022-09-21T20:04:01.964Z,100.00
2022-09-21T20:06:56.144Z,100.00
2022-09-21T20:09:46.754Z,100.00
2022-09-21T20:12:42.097Z,100.00
2022-09-21T20:15:34.232Z,100.00
2022-09-21T20:18:28.249Z,100.00
2022-09-21T20:21:19.558Z,100.00
2022-09-21T20:24:14.125Z,100.00
2022-09-21T20:27:03.949Z,100.00
2022-09-21T20:29:52.632Z,100.00
2022-09-21T20:32:47.364Z,100.00
2022-09-21T20:35:37.303Z,100.00
2022-09-21T20:38:25.811Z,100.00
2022-09-21T20:41:15.890Z,100.00
2022-09-21T20:44:04.511Z,100.00
2022-09-21T20:46:53.214Z,100.00
2022-09-21T20:49:41.763Z,100.00
2022-09-21T20:52:31.575Z,100.00
2022-09-21T20:55:20.326Z,100.00
2022-09-21T20:58:10.519Z,100.00
2022-09-21T21:01:04.176Z,100.00
2022-09-21T21:03:52.770Z,100.00
2022-09-21T21:06:41.435Z,100.00
2022-09-21T21:09:31.236Z,100.00
2022-09-21T21:12:19.735Z,100.00
2022-09-21T21:15:09.114Z,100.00
2022-09-21T21:17:57.567Z,100.00
2022-09-21T21:20:46.001Z,100.00
2022-09-21T21:23:54.964Z,100.00
2022-09-21T21:27:01.248Z,100.00
2022-09-21T21:29:52.837Z,100.00
2022-09-21T21:32:42.683Z,100.00
2022-09-21T21:35:32.084Z,100.00
2022-09-21T21:38:20.522Z,100.00
2022-09-21T21:41:09.029Z,100.00
2022-09-21T21:43:59.090Z,100.00
2022-09-21T21:46:47.924Z,100.00
2022-09-21T21:49:36.428Z,100.00
2022-09-21T21:52:25.042Z,100.00
2022-09-21T21:55:14.268Z,100.00
2022-09-21T21:58:02.703Z,100.00
2022-09-21T22:00:52.603Z,100.00
2022-09-21T22:03:41.768Z,100.00
2022-09-21T22:06:32.076Z,100.00
2022-09-21T22:09:22.073Z,100.00
2022-09-21T22:12:11.150Z,100.00
2022-09-21T22:14:59.608Z,100.00
2022-09-21T22:17:50.769Z,100.00
2022-09-21T22:20:40.529Z,100.00
2022-09-21T22:23:28.936Z,100.00
2022-09-21T22:26:22.358Z,100.00
2022-09-21T22:29:13.432Z,100.00
2022-09-21T22:32:02.341Z,100.00
2022-09-21T22:34:52.196Z,100.00
2022-09-21T22:37:40.632Z,100.00
2022-09-21T22:40:29.285Z,100.00
2022-09-21T22:43:17.877Z,100.00
2022-09-21T22:46:07.276Z,100.00
2022-09-21T22:48:55.791Z,100.00
2022-09-21T22:51:45.593Z,100.00
2022-09-21T22:54:34.070Z,100.00
2022-09-21T22:57:22.524Z,100.00
2022-09-21T23:00:12.265Z,100.00
2022-09-21T23:03:00.697Z,100.00
2022-09-21T23:05:57.084Z,100.00
2022-09-21T23:08:50.391Z,100.00
2022-09-21T23:11:42.699Z,100.00
2022-09-21T23:14:31.149Z,100.00
2022-09-21T23:17:19.605Z,100.00
2022-09-21T23:20:08.409Z,100.00
2022-09-21T23:22:56.861Z,100.00
2022-09-21T23:25:46.740Z,100.00
2022-09-21T23:28:35.787Z,100.00
2022-09-21T23:31:26.591Z,100.00
2022-09-21T23:34:15.871Z,100.00
2022-09-21T23:37:04.411Z,100.00
2022-09-21T23:39:52.841Z,100.00
2022-09-21T23:42:42.621Z,100.00
2022-09-21T23:45:31.089Z,100.00
2022-09-21T23:48:19.602Z,100.00
2022-09-21T23:51:08.400Z,100.00
2022-09-21T23:53:57.772Z,100.00
2022-09-21T23:56:46.913Z,100.00
2022-09-21T23:59:36.666Z,100.00
